sensor_id;sensor_type;location;lat;lon;timestamp;P1;durP1;ratioP1;P2;durP2;ratioP2
18046;SDS011;9148;51.454;13.862;2023-02-28T00:00:46;2.20;;;1.27;;
18046;SDS011;9148;51.454;13.862;2023-02-28T00:03:12;3.63;;;1.40;;
18046;SDS011;9148;51.454;13.862;2023-02-28T00:05:38;4.33;;;1.87;;
18046;SDS011;9148;51.454;13.862;2023-02-28T00:08:04;1.47;;;1.37;;
18046;SDS011;9148;51.454;13.862;2023-02-28T00:10:30;2.20;;;1.27;;
18046;SDS011;9148;51.454;13.862;2023-02-28T00:13:04;4.27;;;2.40;;
18046;SDS011;9148;51.454;13.862;2023-02-28T00:15:31;3.00;;;1.30;;
18046;SDS011;9148;51.454;13.862;2023-02-28T00:17:58;2.20;;;1.87;;
18046;SDS011;9148;51.454;13.862;2023-02-28T00:20:24;3.10;;;1.97;;
18046;SDS011;9148;51.454;13.862;2023-02-28T00:22:50;3.63;;;1.80;;
18046;SDS011;9148;51.454;13.862;2023-02-28T00:25:18;2.70;;;2.10;;
18046;SDS011;9148;51.454;13.862;2023-02-28T00:27:47;2.20;;;1.80;;
18046;SDS011;9148;51.454;13.862;2023-02-28T00:30:14;4.67;;;1.47;;
18046;SDS011;9148;51.454;13.862;2023-02-28T00:32:43;3.33;;;2.23;;
18046;SDS011;9148;51.454;13.862;2023-02-28T00:35:09;2.40;;;2.07;;
18046;SDS011;9148;51.454;13.862;2023-02-28T00:37:35;2.90;;;1.40;;
18046;SDS011;9148;51.454;13.862;2023-02-28T00:40:02;2.37;;;2.03;;
18046;SDS011;9148;51.454;13.862;2023-02-28T00:42:32;3.70;;;2.27;;
18046;SDS011;9148;51.454;13.862;2023-02-28T00:44:59;2.17;;;1.97;;
18046;SDS011;9148;51.454;13.862;2023-02-28T00:47:25;2.53;;;1.87;;
18046;SDS011;9148;51.454;13.862;2023-02-28T00:49:50;4.37;;;2.10;;
18046;SDS011;9148;51.454;13.862;2023-02-28T00:52:16;2.70;;;1.70;;
18046;SDS011;9148;51.454;13.862;2023-02-28T00:54:42;2.83;;;1.30;;
18046;SDS011;9148;51.454;13.862;2023-02-28T00:57:07;4.60;;;2.10;;
18046;SDS011;9148;51.454;13.862;2023-02-28T00:59:33;4.53;;;1.83;;
18046;SDS011;9148;51.454;13.862;2023-02-28T01:01:59;3.47;;;1.80;;
18046;SDS011;9148;51.454;13.862;2023-02-28T01:04:25;2.53;;;1.70;;
18046;SDS011;9148;51.454;13.862;2023-02-28T01:06:51;2.27;;;1.50;;
18046;SDS011;9148;51.454;13.862;2023-02-28T01:09:17;2.73;;;1.43;;
18046;SDS011;9148;51.454;13.862;2023-02-28T01:11:42;2.53;;;1.73;;
18046;SDS011;9148;51.454;13.862;2023-02-28T01:14:09;2.90;;;2.03;;
18046;SDS011;9148;51.454;13.862;2023-02-28T01:16:41;5.47;;;2.30;;
18046;SDS011;9148;51.454;13.862;2023-02-28T01:19:07;3.80;;;1.97;;
18046;SDS011;9148;51.454;13.862;2023-02-28T01:21:33;5.40;;;1.67;;
18046;SDS011;9148;51.454;13.862;2023-02-28T01:24:00;2.57;;;1.70;;
18046;SDS011;9148;51.454;13.862;2023-02-28T01:26:27;2.77;;;2.07;;
18046;SDS011;9148;51.454;13.862;2023-02-28T01:28:52;2.80;;;1.67;;
18046;SDS011;9148;51.454;13.862;2023-02-28T01:31:18;2.40;;;1.60;;
18046;SDS011;9148;51.454;13.862;2023-02-28T01:33:45;4.40;;;1.80;;
18046;SDS011;9148;51.454;13.862;2023-02-28T01:36:13;4.80;;;1.50;;
18046;SDS011;9148;51.454;13.862;2023-02-28T01:38:47;2.00;;;1.80;;
18046;SDS011;9148;51.454;13.862;2023-02-28T01:41:24;2.33;;;1.30;;
18046;SDS011;9148;51.454;13.862;2023-02-28T01:44:05;3.20;;;1.90;;
18046;SDS011;9148;51.454;13.862;2023-02-28T01:47:09;4.87;;;1.90;;
18046;SDS011;9148;51.454;13.862;2023-02-28T01:49:35;5.50;;;2.23;;
18046;SDS011;9148;51.454;13.862;2023-02-28T01:52:01;2.27;;;1.60;;
18046;SDS011;9148;51.454;13.862;2023-02-28T01:54:28;3.40;;;1.60;;
18046;SDS011;9148;51.454;13.862;2023-02-28T01:56:58;4.27;;;2.10;;
18046;SDS011;9148;51.454;13.862;2023-02-28T01:59:45;2.40;;;1.57;;
18046;SDS011;9148;51.454;13.862;2023-02-28T02:02:18;4.57;;;2.53;;
18046;SDS011;9148;51.454;13.862;2023-02-28T02:04:51;1.87;;;1.77;;
18046;SDS011;9148;51.454;13.862;2023-02-28T02:07:32;3.90;;;1.60;;
18046;SDS011;9148;51.454;13.862;2023-02-28T02:10:17;3.80;;;1.87;;
18046;SDS011;9148;51.454;13.862;2023-02-28T02:12:57;2.77;;;2.47;;
18046;SDS011;9148;51.454;13.862;2023-02-28T02:30:42;3.10;;;2.20;;
18046;SDS011;9148;51.454;13.862;2023-02-28T02:41:53;2.07;;;1.40;;
18046;SDS011;9148;51.454;13.862;2023-02-28T02:44:29;4.17;;;2.00;;
18046;SDS011;9148;51.454;13.862;2023-02-28T02:47:14;3.87;;;2.40;;
18046;SDS011;9148;51.454;13.862;2023-02-28T02:49:46;3.10;;;2.07;;
18046;SDS011;9148;51.454;13.862;2023-02-28T02:52:27;4.50;;;2.07;;
18046;SDS011;9148;51.454;13.862;2023-02-28T02:54:59;3.93;;;2.40;;
18046;SDS011;9148;51.454;13.862;2023-02-28T02:57:29;4.30;;;2.20;;
18046;SDS011;9148;51.454;13.862;2023-02-28T03:00:02;4.47;;;2.20;;
18046;SDS011;9148;51.454;13.862;2023-02-28T03:02:33;4.47;;;2.03;;
18046;SDS011;9148;51.454;13.862;2023-02-28T03:05:02;8.00;;;2.40;;
18046;SDS011;9148;51.454;13.862;2023-02-28T03:07:34;4.00;;;1.20;;
18046;SDS011;9148;51.454;13.862;2023-02-28T03:09:59;2.93;;;1.93;;
18046;SDS011;9148;51.454;13.862;2023-02-28T03:12:34;1.60;;;1.50;;
18046;SDS011;9148;51.454;13.862;2023-02-28T03:18:02;4.47;;;2.37;;
18046;SDS011;9148;51.454;13.862;2023-02-28T03:20:53;3.60;;;1.83;;
18046;SDS011;9148;51.454;13.862;2023-02-28T03:24:02;3.70;;;2.03;;
18046;SDS011;9148;51.454;13.862;2023-02-28T03:26:45;6.53;;;2.40;;
18046;SDS011;9148;51.454;13.862;2023-02-28T03:29:30;4.17;;;2.47;;
18046;SDS011;9148;51.454;13.862;2023-02-28T03:35:20;2.97;;;2.17;;
18046;SDS011;9148;51.454;13.862;2023-02-28T03:37:50;5.40;;;2.67;;
18046;SDS011;9148;51.454;13.862;2023-02-28T03:40:25;4.27;;;2.37;;
18046;SDS011;9148;51.454;13.862;2023-02-28T03:42:58;3.37;;;2.00;;
18046;SDS011;9148;51.454;13.862;2023-02-28T03:45:30;5.97;;;2.30;;
18046;SDS011;9148;51.454;13.862;2023-02-28T03:48:07;7.50;;;3.00;;
18046;SDS011;9148;51.454;13.862;2023-02-28T03:50:47;3.67;;;2.40;;
18046;SDS011;9148;51.454;13.862;2023-02-28T03:53:19;7.53;;;2.53;;
18046;SDS011;9148;51.454;13.862;2023-02-28T03:56:08;4.93;;;2.97;;
18046;SDS011;9148;51.454;13.862;2023-02-28T04:01:28;4.57;;;2.57;;
18046;SDS011;9148;51.454;13.862;2023-02-28T04:04:01;8.00;;;3.23;;
18046;SDS011;9148;51.454;13.862;2023-02-28T04:06:27;6.53;;;2.87;;
18046;SDS011;9148;51.454;13.862;2023-02-28T04:08:58;3.73;;;2.80;;
18046;SDS011;9148;51.454;13.862;2023-02-28T04:11:30;4.67;;;2.67;;
18046;SDS011;9148;51.454;13.862;2023-02-28T04:14:01;3.47;;;2.67;;
18046;SDS011;9148;51.454;13.862;2023-02-28T04:16:29;3.90;;;2.60;;
18046;SDS011;9148;51.454;13.862;2023-02-28T04:18:59;6.80;;;2.93;;
18046;SDS011;9148;51.454;13.862;2023-02-28T04:21:30;4.50;;;2.57;;
18046;SDS011;9148;51.454;13.862;2023-02-28T04:24:03;5.87;;;3.30;;
18046;SDS011;9148;51.454;13.862;2023-02-28T04:29:01;4.33;;;3.10;;
18046;SDS011;9148;51.454;13.862;2023-02-28T04:31:29;8.55;;;3.60;;
18046;SDS011;9148;51.454;13.862;2023-02-28T04:33:56;5.90;;;2.97;;
18046;SDS011;9148;51.454;13.862;2023-02-28T04:36:22;4.80;;;2.67;;
18046;SDS011;9148;51.454;13.862;2023-02-28T04:38:48;4.77;;;2.50;;
18046;SDS011;9148;51.454;13.862;2023-02-28T04:41:15;4.47;;;2.47;;
18046;SDS011;9148;51.454;13.862;2023-02-28T04:43:41;4.27;;;2.33;;
18046;SDS011;9148;51.454;13.862;2023-02-28T04:46:08;3.77;;;2.37;;
18046;SDS011;9148;51.454;13.862;2023-02-28T04:48:35;4.43;;;2.90;;
18046;SDS011;9148;51.454;13.862;2023-02-28T04:51:03;3.53;;;2.30;;
18046;SDS011;9148;51.454;13.862;2023-02-28T04:53:34;5.20;;;2.30;;
18046;SDS011;9148;51.454;13.862;2023-02-28T04:56:11;14.20;;;3.80;;
18046;SDS011;9148;51.454;13.862;2023-02-28T04:58:39;7.80;;;2.93;;
18046;SDS011;9148;51.454;13.862;2023-02-28T05:01:05;4.60;;;2.57;;
18046;SDS011;9148;51.454;13.862;2023-02-28T05:03:55;4.23;;;2.60;;
18046;SDS011;9148;51.454;13.862;2023-02-28T05:06:24;4.40;;;2.90;;
18046;SDS011;9148;51.454;13.862;2023-02-28T05:08:51;5.13;;;2.57;;
18046;SDS011;9148;51.454;13.862;2023-02-28T05:13:50;6.07;;;3.60;;
18046;SDS011;9148;51.454;13.862;2023-02-28T05:16:17;4.80;;;2.73;;
18046;SDS011;9148;51.454;13.862;2023-02-28T05:18:43;3.40;;;2.77;;
18046;SDS011;9148;51.454;13.862;2023-02-28T05:21:23;3.40;;;2.70;;
18046;SDS011;9148;51.454;13.862;2023-02-28T05:23:59;4.00;;;2.50;;
18046;SDS011;9148;51.454;13.862;2023-02-28T05:26:28;5.17;;;2.70;;
18046;SDS011;9148;51.454;13.862;2023-02-28T05:28:54;3.57;;;2.63;;
18046;SDS011;9148;51.454;13.862;2023-02-28T05:31:21;3.43;;;2.37;;
18046;SDS011;9148;51.454;13.862;2023-02-28T05:33:47;4.00;;;3.07;;
18046;SDS011;9148;51.454;13.862;2023-02-28T05:36:13;4.57;;;2.93;;
18046;SDS011;9148;51.454;13.862;2023-02-28T05:38:38;3.73;;;2.73;;
18046;SDS011;9148;51.454;13.862;2023-02-28T05:41:05;7.13;;;2.70;;
18046;SDS011;9148;51.454;13.862;2023-02-28T05:43:32;5.57;;;3.30;;
18046;SDS011;9148;51.454;13.862;2023-02-28T05:45:59;2.77;;;2.10;;
18046;SDS011;9148;51.454;13.862;2023-02-28T05:48:28;3.70;;;2.73;;
18046;SDS011;9148;51.454;13.862;2023-02-28T05:50:54;6.70;;;2.67;;
18046;SDS011;9148;51.454;13.862;2023-02-28T05:53:20;4.50;;;2.57;;
18046;SDS011;9148;51.454;13.862;2023-02-28T05:55:46;6.73;;;3.10;;
18046;SDS011;9148;51.454;13.862;2023-02-28T05:58:11;5.77;;;3.20;;
18046;SDS011;9148;51.454;13.862;2023-02-28T06:00:37;4.50;;;3.30;;
18046;SDS011;9148;51.454;13.862;2023-02-28T06:03:03;10.00;;;3.83;;
18046;SDS011;9148;51.454;13.862;2023-02-28T06:05:28;6.47;;;3.70;;
18046;SDS011;9148;51.454;13.862;2023-02-28T06:07:54;6.33;;;3.43;;
18046;SDS011;9148;51.454;13.862;2023-02-28T06:10:20;6.17;;;4.20;;
18046;SDS011;9148;51.454;13.862;2023-02-28T06:12:45;6.67;;;4.30;;
18046;SDS011;9148;51.454;13.862;2023-02-28T06:15:12;6.87;;;3.37;;
18046;SDS011;9148;51.454;13.862;2023-02-28T06:17:39;5.80;;;3.43;;
18046;SDS011;9148;51.454;13.862;2023-02-28T06:20:09;7.97;;;4.00;;
18046;SDS011;9148;51.454;13.862;2023-02-28T06:22:37;4.83;;;3.47;;
18046;SDS011;9148;51.454;13.862;2023-02-28T06:25:04;7.40;;;3.47;;
18046;SDS011;9148;51.454;13.862;2023-02-28T06:27:32;7.03;;;4.17;;
18046;SDS011;9148;51.454;13.862;2023-02-28T06:29:59;4.57;;;3.27;;
18046;SDS011;9148;51.454;13.862;2023-02-28T06:32:24;7.73;;;4.20;;
18046;SDS011;9148;51.454;13.862;2023-02-28T06:34:50;10.80;;;6.17;;
18046;SDS011;9148;51.454;13.862;2023-02-28T06:37:16;10.80;;;6.53;;
18046;SDS011;9148;51.454;13.862;2023-02-28T06:39:43;14.00;;;6.90;;
18046;SDS011;9148;51.454;13.862;2023-02-28T06:42:09;8.93;;;5.23;;
18046;SDS011;9148;51.454;13.862;2023-02-28T06:44:35;8.40;;;5.53;;
18046;SDS011;9148;51.454;13.862;2023-02-28T06:47:04;8.80;;;5.50;;
18046;SDS011;9148;51.454;13.862;2023-02-28T06:49:31;10.43;;;5.20;;
18046;SDS011;9148;51.454;13.862;2023-02-28T06:51:59;9.93;;;5.50;;
18046;SDS011;9148;51.454;13.862;2023-02-28T06:54:25;6.27;;;4.63;;
18046;SDS011;9148;51.454;13.862;2023-02-28T06:56:50;9.33;;;4.27;;
18046;SDS011;9148;51.454;13.862;2023-02-28T06:59:16;10.93;;;5.87;;
18046;SDS011;9148;51.454;13.862;2023-02-28T07:01:42;10.93;;;6.40;;
18046;SDS011;9148;51.454;13.862;2023-02-28T07:04:08;11.77;;;4.80;;
18046;SDS011;9148;51.454;13.862;2023-02-28T07:06:34;8.67;;;5.10;;
18046;SDS011;9148;51.454;13.862;2023-02-28T07:09:00;9.20;;;5.63;;
18046;SDS011;9148;51.454;13.862;2023-02-28T07:11:26;8.77;;;4.77;;
18046;SDS011;9148;51.454;13.862;2023-02-28T07:13:53;5.53;;;4.37;;
18046;SDS011;9148;51.454;13.862;2023-02-28T07:16:20;6.97;;;4.53;;
18046;SDS011;9148;51.454;13.862;2023-02-28T07:18:47;9.80;;;5.20;;
18046;SDS011;9148;51.454;13.862;2023-02-28T07:21:13;3.73;;;3.20;;
18046;SDS011;9148;51.454;13.862;2023-02-28T07:23:39;4.63;;;3.57;;
18046;SDS011;9148;51.454;13.862;2023-02-28T07:26:06;6.93;;;3.43;;
18046;SDS011;9148;51.454;13.862;2023-02-28T07:28:36;4.33;;;3.70;;
18046;SDS011;9148;51.454;13.862;2023-02-28T07:31:04;5.47;;;3.70;;
18046;SDS011;9148;51.454;13.862;2023-02-28T07:33:31;4.83;;;2.90;;
18046;SDS011;9148;51.454;13.862;2023-02-28T07:36:03;6.53;;;3.20;;
18046;SDS011;9148;51.454;13.862;2023-02-28T07:38:35;5.20;;;3.50;;
18046;SDS011;9148;51.454;13.862;2023-02-28T07:41:02;6.80;;;3.63;;
18046;SDS011;9148;51.454;13.862;2023-02-28T07:43:31;5.07;;;3.87;;
18046;SDS011;9148;51.454;13.862;2023-02-28T07:46:05;4.13;;;3.23;;
18046;SDS011;9148;51.454;13.862;2023-02-28T07:48:33;5.97;;;4.03;;
18046;SDS011;9148;51.454;13.862;2023-02-28T07:50:59;6.20;;;3.40;;
18046;SDS011;9148;51.454;13.862;2023-02-28T07:53:26;5.00;;;3.77;;
18046;SDS011;9148;51.454;13.862;2023-02-28T07:56:01;3.93;;;3.27;;
18046;SDS011;9148;51.454;13.862;2023-02-28T07:58:28;3.93;;;2.60;;
18046;SDS011;9148;51.454;13.862;2023-02-28T08:00:55;5.33;;;3.37;;
18046;SDS011;9148;51.454;13.862;2023-02-28T08:03:21;6.50;;;2.80;;
18046;SDS011;9148;51.454;13.862;2023-02-28T08:05:48;2.80;;;2.10;;
18046;SDS011;9148;51.454;13.862;2023-02-28T08:08:15;4.07;;;2.40;;
18046;SDS011;9148;51.454;13.862;2023-02-28T08:10:42;5.20;;;2.97;;
18046;SDS011;9148;51.454;13.862;2023-02-28T08:13:08;4.27;;;2.43;;
18046;SDS011;9148;51.454;13.862;2023-02-28T08:15:33;3.13;;;2.20;;
18046;SDS011;9148;51.454;13.862;2023-02-28T08:17:59;4.10;;;2.03;;
18046;SDS011;9148;51.454;13.862;2023-02-28T08:20:25;2.70;;;1.77;;
18046;SDS011;9148;51.454;13.862;2023-02-28T08:22:51;5.07;;;2.53;;
18046;SDS011;9148;51.454;13.862;2023-02-28T08:25:17;5.60;;;2.93;;
18046;SDS011;9148;51.454;13.862;2023-02-28T08:27:43;2.73;;;2.50;;
18046;SDS011;9148;51.454;13.862;2023-02-28T08:30:10;3.47;;;1.93;;
18046;SDS011;9148;51.454;13.862;2023-02-28T08:32:37;7.73;;;2.83;;
18046;SDS011;9148;51.454;13.862;2023-02-28T08:35:03;6.33;;;2.97;;
18046;SDS011;9148;51.454;13.862;2023-02-28T08:37:30;8.23;;;2.10;;
18046;SDS011;9148;51.454;13.862;2023-02-28T08:39:55;7.73;;;3.60;;
18046;SDS011;9148;51.454;13.862;2023-02-28T08:42:21;4.47;;;2.80;;
18046;SDS011;9148;51.454;13.862;2023-02-28T08:44:47;10.10;;;3.30;;
18046;SDS011;9148;51.454;13.862;2023-02-28T08:47:13;4.07;;;2.70;;
18046;SDS011;9148;51.454;13.862;2023-02-28T08:49:38;4.97;;;2.50;;
18046;SDS011;9148;51.454;13.862;2023-02-28T08:52:04;3.63;;;2.30;;
18046;SDS011;9148;51.454;13.862;2023-02-28T08:54:30;4.73;;;2.23;;
18046;SDS011;9148;51.454;13.862;2023-02-28T08:56:57;4.90;;;3.00;;
18046;SDS011;9148;51.454;13.862;2023-02-28T08:59:22;4.00;;;2.60;;
18046;SDS011;9148;51.454;13.862;2023-02-28T09:01:48;3.10;;;2.63;;
18046;SDS011;9148;51.454;13.862;2023-02-28T09:04:13;6.87;;;2.37;;
18046;SDS011;9148;51.454;13.862;2023-02-28T09:06:39;4.33;;;2.37;;
18046;SDS011;9148;51.454;13.862;2023-02-28T09:09:05;3.07;;;2.50;;
18046;SDS011;9148;51.454;13.862;2023-02-28T09:11:32;4.30;;;2.00;;
18046;SDS011;9148;51.454;13.862;2023-02-28T09:14:00;3.63;;;2.13;;
18046;SDS011;9148;51.454;13.862;2023-02-28T09:16:28;3.87;;;2.50;;
18046;SDS011;9148;51.454;13.862;2023-02-28T09:18:55;6.37;;;2.53;;
18046;SDS011;9148;51.454;13.862;2023-02-28T09:21:21;4.87;;;2.67;;
18046;SDS011;9148;51.454;13.862;2023-02-28T09:23:48;3.97;;;2.03;;
18046;SDS011;9148;51.454;13.862;2023-02-28T09:26:21;4.07;;;2.80;;
18046;SDS011;9148;51.454;13.862;2023-02-28T09:28:52;3.27;;;2.33;;
18046;SDS011;9148;51.454;13.862;2023-02-28T09:31:20;6.57;;;2.73;;
18046;SDS011;9148;51.454;13.862;2023-02-28T09:33:50;4.77;;;2.97;;
18046;SDS011;9148;51.454;13.862;2023-02-28T09:36:17;4.20;;;2.97;;
18046;SDS011;9148;51.454;13.862;2023-02-28T09:38:44;6.43;;;3.37;;
18046;SDS011;9148;51.454;13.862;2023-02-28T09:41:13;2.57;;;2.20;;
18046;SDS011;9148;51.454;13.862;2023-02-28T09:43:45;4.70;;;2.97;;
18046;SDS011;9148;51.454;13.862;2023-02-28T09:46:29;2.50;;;2.30;;
18046;SDS011;9148;51.454;13.862;2023-02-28T09:49:07;4.73;;;3.00;;
18046;SDS011;9148;51.454;13.862;2023-02-28T09:51:50;7.97;;;3.17;;
18046;SDS011;9148;51.454;13.862;2023-02-28T09:54:35;2.27;;;2.07;;
18046;SDS011;9148;51.454;13.862;2023-02-28T10:05:47;6.33;;;2.83;;
18046;SDS011;9148;51.454;13.862;2023-02-28T10:08:29;3.27;;;2.60;;
18046;SDS011;9148;51.454;13.862;2023-02-28T10:11:06;4.57;;;2.77;;
18046;SDS011;9148;51.454;13.862;2023-02-28T10:13:36;5.93;;;2.77;;
18046;SDS011;9148;51.454;13.862;2023-02-28T10:16:51;4.70;;;2.90;;
18046;SDS011;9148;51.454;13.862;2023-02-28T10:19:23;2.97;;;2.40;;
18046;SDS011;9148;51.454;13.862;2023-02-28T10:25:00;4.83;;;3.00;;
18046;SDS011;9148;51.454;13.862;2023-02-28T10:27:40;2.63;;;2.33;;
18046;SDS011;9148;51.454;13.862;2023-02-28T10:30:05;6.13;;;2.43;;
18046;SDS011;9148;51.454;13.862;2023-02-28T10:32:35;2.60;;;2.20;;
18046;SDS011;9148;51.454;13.862;2023-02-28T10:37:54;4.33;;;3.23;;
18046;SDS011;9148;51.454;13.862;2023-02-28T10:43:02;5.20;;;3.27;;
18046;SDS011;9148;51.454;13.862;2023-02-28T10:45:54;3.27;;;2.97;;
18046;SDS011;9148;51.454;13.862;2023-02-28T10:48:43;5.40;;;3.00;;
18046;SDS011;9148;51.454;13.862;2023-02-28T10:51:15;4.37;;;3.67;;
18046;SDS011;9148;51.454;13.862;2023-02-28T10:53:53;3.87;;;2.63;;
18046;SDS011;9148;51.454;13.862;2023-02-28T10:56:21;6.30;;;3.20;;
18046;SDS011;9148;51.454;13.862;2023-02-28T10:58:50;7.40;;;2.33;;
18046;SDS011;9148;51.454;13.862;2023-02-28T11:01:39;5.30;;;3.10;;
18046;SDS011;9148;51.454;13.862;2023-02-28T11:04:25;5.43;;;3.47;;
18046;SDS011;9148;51.454;13.862;2023-02-28T11:07:06;4.83;;;3.10;;
18046;SDS011;9148;51.454;13.862;2023-02-28T11:09:48;3.10;;;2.40;;
18046;SDS011;9148;51.454;13.862;2023-02-28T11:12:20;4.60;;;2.83;;
18046;SDS011;9148;51.454;13.862;2023-02-28T11:15:14;2.47;;;2.00;;
18046;SDS011;9148;51.454;13.862;2023-02-28T11:17:57;4.63;;;2.67;;
18046;SDS011;9148;51.454;13.862;2023-02-28T11:20:26;5.10;;;2.07;;
18046;SDS011;9148;51.454;13.862;2023-02-28T11:22:57;5.43;;;2.80;;
18046;SDS011;9148;51.454;13.862;2023-02-28T11:25:29;2.57;;;2.37;;
18046;SDS011;9148;51.454;13.862;2023-02-28T11:28:03;3.67;;;2.47;;
18046;SDS011;9148;51.454;13.862;2023-02-28T11:30:35;5.23;;;3.00;;
18046;SDS011;9148;51.454;13.862;2023-02-28T11:33:20;4.97;;;2.63;;
18046;SDS011;9148;51.454;13.862;2023-02-28T11:35:59;3.40;;;1.93;;
18046;SDS011;9148;51.454;13.862;2023-02-28T11:38:34;4.23;;;2.50;;
18046;SDS011;9148;51.454;13.862;2023-02-28T11:43:54;7.50;;;2.17;;
18046;SDS011;9148;51.454;13.862;2023-02-28T11:46:30;4.13;;;3.17;;
18046;SDS011;9148;51.454;13.862;2023-02-28T11:49:34;2.73;;;1.93;;
18046;SDS011;9148;51.454;13.862;2023-02-28T11:52:29;3.50;;;2.57;;
18046;SDS011;9148;51.454;13.862;2023-02-28T11:55:24;5.33;;;2.27;;
18046;SDS011;9148;51.454;13.862;2023-02-28T11:58:05;5.47;;;2.70;;
18046;SDS011;9148;51.454;13.862;2023-02-28T12:15:46;3.53;;;2.73;;
18046;SDS011;9148;51.454;13.862;2023-02-28T12:21:18;3.17;;;2.40;;
18046;SDS011;9148;51.454;13.862;2023-02-28T12:27:11;3.83;;;2.60;;
18046;SDS011;9148;51.454;13.862;2023-02-28T12:32:41;3.77;;;1.97;;
18046;SDS011;9148;51.454;13.862;2023-02-28T12:35:21;4.33;;;2.10;;
18046;SDS011;9148;51.454;13.862;2023-02-28T12:38:01;4.30;;;2.17;;
18046;SDS011;9148;51.454;13.862;2023-02-28T12:40:44;4.23;;;2.40;;
18046;SDS011;9148;51.454;13.862;2023-02-28T12:43:20;4.23;;;1.93;;
18046;SDS011;9148;51.454;13.862;2023-02-28T12:45:56;3.73;;;2.10;;
18046;SDS011;9148;51.454;13.862;2023-02-28T12:48:31;3.30;;;2.53;;
18046;SDS011;9148;51.454;13.862;2023-02-28T12:51:04;4.27;;;2.57;;
18046;SDS011;9148;51.454;13.862;2023-02-28T12:56:19;3.53;;;2.07;;
18046;SDS011;9148;51.454;13.862;2023-02-28T12:59:14;3.00;;;2.50;;
18046;SDS011;9148;51.454;13.862;2023-02-28T13:02:18;2.90;;;2.07;;
18046;SDS011;9148;51.454;13.862;2023-02-28T13:05:44;3.20;;;2.40;;
18046;SDS011;9148;51.454;13.862;2023-02-28T13:08:44;3.80;;;2.63;;
18046;SDS011;9148;51.454;13.862;2023-02-28T13:11:31;2.07;;;1.97;;
18046;SDS011;9148;51.454;13.862;2023-02-28T13:14:06;2.90;;;2.57;;
18046;SDS011;9148;51.454;13.862;2023-02-28T13:16:50;4.20;;;2.50;;
18046;SDS011;9148;51.454;13.862;2023-02-28T13:19:24;2.13;;;1.73;;
18046;SDS011;9148;51.454;13.862;2023-02-28T13:21:54;5.40;;;2.03;;
18046;SDS011;9148;51.454;13.862;2023-02-28T13:27:33;2.10;;;1.70;;
18046;SDS011;9148;51.454;13.862;2023-02-28T13:30:02;3.60;;;2.40;;
18046;SDS011;9148;51.454;13.862;2023-02-28T13:36:06;4.63;;;2.17;;
18046;SDS011;9148;51.454;13.862;2023-02-28T13:38:48;3.43;;;2.50;;
18046;SDS011;9148;51.454;13.862;2023-02-28T13:49:25;5.90;;;2.70;;
18046;SDS011;9148;51.454;13.862;2023-02-28T13:54:45;4.20;;;2.03;;
18046;SDS011;9148;51.454;13.862;2023-02-28T14:00:49;3.50;;;2.83;;
18046;SDS011;9148;51.454;13.862;2023-02-28T14:06:25;4.17;;;2.37;;
18046;SDS011;9148;51.454;13.862;2023-02-28T14:09:29;4.10;;;2.40;;
18046;SDS011;9148;51.454;13.862;2023-02-28T14:11:51;6.23;;;2.53;;
18046;SDS011;9148;51.454;13.862;2023-02-28T14:17:08;3.93;;;2.07;;
18046;SDS011;9148;51.454;13.862;2023-02-28T14:19:40;2.57;;;1.93;;
18046;SDS011;9148;51.454;13.862;2023-02-28T14:31:12;3.70;;;2.43;;
18046;SDS011;9148;51.454;13.862;2023-02-28T14:36:43;4.53;;;2.77;;
18046;SDS011;9148;51.454;13.862;2023-02-28T14:39:13;2.73;;;2.40;;
18046;SDS011;9148;51.454;13.862;2023-02-28T14:41:44;3.53;;;2.43;;
18046;SDS011;9148;51.454;13.862;2023-02-28T14:46:49;2.53;;;2.07;;
18046;SDS011;9148;51.454;13.862;2023-02-28T14:49:30;2.43;;;2.10;;
18046;SDS011;9148;51.454;13.862;2023-02-28T14:52:23;2.47;;;2.17;;
18046;SDS011;9148;51.454;13.862;2023-02-28T14:54:56;4.73;;;2.97;;
18046;SDS011;9148;51.454;13.862;2023-02-28T14:57:32;5.03;;;2.40;;
18046;SDS011;9148;51.454;13.862;2023-02-28T15:00:15;2.60;;;2.23;;
18046;SDS011;9148;51.454;13.862;2023-02-28T15:02:55;2.60;;;1.70;;
18046;SDS011;9148;51.454;13.862;2023-02-28T15:05:27;4.77;;;3.07;;
18046;SDS011;9148;51.454;13.862;2023-02-28T15:08:03;4.80;;;2.13;;
18046;SDS011;9148;51.454;13.862;2023-02-28T15:10:49;3.13;;;2.43;;
18046;SDS011;9148;51.454;13.862;2023-02-28T15:16:37;2.20;;;2.00;;
18046;SDS011;9148;51.454;13.862;2023-02-28T15:21:57;2.17;;;1.70;;
18046;SDS011;9148;51.454;13.862;2023-02-28T15:24:37;4.80;;;1.63;;
18046;SDS011;9148;51.454;13.862;2023-02-28T15:27:09;2.83;;;1.40;;
18046;SDS011;9148;51.454;13.862;2023-02-28T15:29:48;2.70;;;2.20;;
18046;SDS011;9148;51.454;13.862;2023-02-28T15:32:35;2.53;;;2.13;;
18046;SDS011;9148;51.454;13.862;2023-02-28T15:35:18;3.20;;;1.80;;
18046;SDS011;9148;51.454;13.862;2023-02-28T15:38:04;3.87;;;2.07;;
18046;SDS011;9148;51.454;13.862;2023-02-28T15:40:43;2.20;;;1.83;;
18046;SDS011;9148;51.454;13.862;2023-02-28T15:43:28;4.13;;;2.40;;
18046;SDS011;9148;51.454;13.862;2023-02-28T15:48:29;3.80;;;2.30;;
18046;SDS011;9148;51.454;13.862;2023-02-28T15:53:50;5.53;;;3.40;;
18046;SDS011;9148;51.454;13.862;2023-02-28T15:56:26;3.50;;;2.40;;
18046;SDS011;9148;51.454;13.862;2023-02-28T15:59:04;2.53;;;2.33;;
18046;SDS011;9148;51.454;13.862;2023-02-28T16:01:36;3.30;;;2.47;;
18046;SDS011;9148;51.454;13.862;2023-02-28T16:04:05;5.73;;;3.00;;
18046;SDS011;9148;51.454;13.862;2023-02-28T16:06:40;4.20;;;3.57;;
18046;SDS011;9148;51.454;13.862;2023-02-28T16:09:09;6.37;;;3.30;;
18046;SDS011;9148;51.454;13.862;2023-02-28T16:11:42;7.40;;;3.80;;
18046;SDS011;9148;51.454;13.862;2023-02-28T16:14:18;6.87;;;3.23;;
18046;SDS011;9148;51.454;13.862;2023-02-28T16:16:51;2.67;;;2.10;;
18046;SDS011;9148;51.454;13.862;2023-02-28T16:19:20;5.50;;;2.30;;
18046;SDS011;9148;51.454;13.862;2023-02-28T16:21:46;6.73;;;2.00;;
18046;SDS011;9148;51.454;13.862;2023-02-28T16:24:13;4.10;;;2.90;;
18046;SDS011;9148;51.454;13.862;2023-02-28T16:26:39;5.97;;;2.50;;
18046;SDS011;9148;51.454;13.862;2023-02-28T16:29:09;4.07;;;1.87;;
18046;SDS011;9148;51.454;13.862;2023-02-28T16:31:48;2.20;;;1.67;;
18046;SDS011;9148;51.454;13.862;2023-02-28T16:34:13;2.40;;;1.50;;
18046;SDS011;9148;51.454;13.862;2023-02-28T16:36:39;2.10;;;1.90;;
18046;SDS011;9148;51.454;13.862;2023-02-28T16:39:05;4.10;;;2.43;;
18046;SDS011;9148;51.454;13.862;2023-02-28T16:41:31;3.53;;;2.63;;
18046;SDS011;9148;51.454;13.862;2023-02-28T16:43:59;3.63;;;3.33;;
18046;SDS011;9148;51.454;13.862;2023-02-28T16:46:31;8.83;;;5.43;;
18046;SDS011;9148;51.454;13.862;2023-02-28T16:48:59;4.23;;;3.13;;
18046;SDS011;9148;51.454;13.862;2023-02-28T16:51:25;6.20;;;4.10;;
18046;SDS011;9148;51.454;13.862;2023-02-28T16:53:51;4.37;;;3.10;;
18046;SDS011;9148;51.454;13.862;2023-02-28T16:56:23;2.63;;;2.43;;
18046;SDS011;9148;51.454;13.862;2023-02-28T16:58:50;4.60;;;2.83;;
18046;SDS011;9148;51.454;13.862;2023-02-28T17:01:16;5.70;;;3.00;;
18046;SDS011;9148;51.454;13.862;2023-02-28T17:03:46;5.50;;;3.37;;
18046;SDS011;9148;51.454;13.862;2023-02-28T17:06:20;4.53;;;2.37;;
18046;SDS011;9148;51.454;13.862;2023-02-28T17:08:52;4.87;;;3.07;;
18046;SDS011;9148;51.454;13.862;2023-02-28T17:11:19;6.43;;;2.53;;
18046;SDS011;9148;51.454;13.862;2023-02-28T17:13:45;4.67;;;3.47;;
18046;SDS011;9148;51.454;13.862;2023-02-28T17:16:28;5.00;;;3.10;;
18046;SDS011;9148;51.454;13.862;2023-02-28T17:18:58;7.67;;;3.57;;
18046;SDS011;9148;51.454;13.862;2023-02-28T17:21:27;6.13;;;4.30;;
18046;SDS011;9148;51.454;13.862;2023-02-28T17:23:53;5.63;;;4.90;;
18046;SDS011;9148;51.454;13.862;2023-02-28T17:26:19;14.80;;;9.23;;
18046;SDS011;9148;51.454;13.862;2023-02-28T17:28:47;12.03;;;7.17;;
18046;SDS011;9148;51.454;13.862;2023-02-28T17:31:13;14.07;;;10.30;;
18046;SDS011;9148;51.454;13.862;2023-02-28T17:33:39;15.63;;;8.23;;